Time;durP1;ratioP1;P1;durP2;ratioP2;P2;SDS_P1;SDS_P2;PMS_P1;PMS_P2;Temp;Humidity;BMP_temperature;BMP_pressure;BME280_temperature;BME280_humidity;BME280_pressure;Samples;Min_cycle;Max_cycle;Signal;HPM_P1;HPM_P2
2022/11/21 00:00:21;;;;;;;30.08;17.83;;;;;;;;;;6237729;22;20012;-72
2022/11/21 00:02:47;;;;;;;27.67;17.10;;;;;;;;;;6240793;22;20028;-72
2022/11/21 00:05:14;;;;;;;28.38;16.85;;;;;;;;;;6235443;22;20032;-73
2022/11/21 00:07:40;;;;;;;23.15;14.77;;;;;;;;;;6241313;22;20052;-72
2022/11/21 00:10:06;;;;;;;29.67;16.95;;;;;;;;;;6237966;22;20086;-72
2022/11/21 00:12:32;;;;;;;31.02;16.65;;;;;;;;;;6239816;22;20048;-72
2022/11/21 00:15:03;;;;;;;27.23;16.38;;;;;;;;;;6240782;22;20028;-72
2022/11/21 00:17:29;;;;;;;28.25;15.45;;;;;;;;;;6233040;22;20023;-73
2022/11/21 00:19:55;;;;;;;25.80;16.05;;;;;;;;;;6238611;22;20024;-72
2022/11/21 00:22:21;;;;;;;29.55;16.17;;;;;;;;;;6239486;22;20130;-72
2022/11/21 00:24:48;;;;;;;28.83;17.38;;;;;;;;;;6235641;22;20052;-72
2022/11/21 00:27:14;;;;;;;26.67;15.65;;;;;;;;;;6224959;22;20020;-72
2022/11/21 00:29:40;;;;;;;30.25;17.30;;;;;;;;;;6236598;22;20020;-72
2022/11/21 00:32:06;;;;;;;28.70;16.67;;;;;;;;;;6238355;22;20108;-72
2022/11/21 00:34:32;;;;;;;29.58;16.70;;;;;;;;;;6240868;22;20035;-73
2022/11/21 00:36:58;;;;;;;26.65;16.10;;;;;;;;;;6244139;22;20027;-71
2022/11/21 00:39:24;;;;;;;28.13;17.13;;;;;;;;;;6236778;22;20016;-72
2022/11/21 00:41:50;;;;;;;29.52;17.23;;;;;;;;;;6237478;22;20020;-72
2022/11/21 00:44:16;;;;;;;28.73;17.65;;;;;;;;;;6239829;22;20023;-73
2022/11/21 00:46:42;;;;;;;32.90;18.10;;;;;;;;;;6240967;22;20024;-72
2022/11/21 00:49:08;;;;;;;29.10;17.63;;;;;;;;;;6236867;22;20024;-72
2022/11/21 00:51:34;;;;;;;34.20;18.80;;;;;;;;;;6239629;22;20020;-72
2022/11/21 00:54:00;;;;;;;29.83;17.90;;;;;;;;;;6241307;22;20074;-72
2022/11/21 00:56:26;;;;;;;27.88;16.40;;;;;;;;;;6239840;22;20031;-72
2022/11/21 00:58:53;;;;;;;28.17;17.42;;;;;;;;;;6238127;22;20066;-72
2022/11/21 01:01:19;;;;;;;33.58;18.52;;;;;;;;;;6239136;22;20086;-72
2022/11/21 01:03:45;;;;;;;33.10;18.80;;;;;;;;;;6238868;22;20027;-72
2022/11/21 01:06:12;;;;;;;30.60;18.40;;;;;;;;;;6239826;22;20024;-72
2022/11/21 01:08:39;;;;;;;30.58;19.00;;;;;;;;;;6238903;22;20027;-72
2022/11/21 01:11:05;;;;;;;35.15;18.98;;;;;;;;;;6239319;22;20027;-73
2022/11/21 01:13:32;;;;;;;33.45;19.55;;;;;;;;;;6239048;22;20028;-72
2022/11/21 01:16:03;;;;;;;33.38;18.58;;;;;;;;;;6239714;22;20027;-72
2022/11/21 01:18:29;;;;;;;31.27;17.88;;;;;;;;;;6236313;22;20016;-72
2022/11/21 01:20:58;;;;;;;30.25;17.67;;;;;;;;;;6239605;22;20016;-71
2022/11/21 01:23:24;;;;;;;31.60;17.58;;;;;;;;;;6238498;22;20020;-72
2022/11/21 01:25:50;;;;;;;33.20;19.52;;;;;;;;;;6240520;22;20659;-73
2022/11/21 01:28:16;;;;;;;30.70;17.88;;;;;;;;;;6239439;22;20452;-71
2022/11/21 01:30:42;;;;;;;32.83;19.27;;;;;;;;;;6237443;22;20105;-73
2022/11/21 01:33:08;;;;;;;32.70;19.42;;;;;;;;;;6221587;22;20028;-73
2022/11/21 01:35:34;;;;;;;29.77;17.88;;;;;;;;;;6236990;22;20024;-73
2022/11/21 01:38:00;;;;;;;33.92;19.40;;;;;;;;;;6235298;22;20149;-73
2022/11/21 01:40:26;;;;;;;31.55;18.00;;;;;;;;;;6238369;22;20022;-73
2022/11/21 01:43:03;;;;;;;29.85;18.38;;;;;;;;;;6239778;22;20671;-73
2022/11/21 01:45:47;;;;;;;31.08;18.08;;;;;;;;;;6239185;22;20330;-72
2022/11/21 01:48:14;;;;;;;28.52;17.08;;;;;;;;;;6236753;22;20012;-71
2022/11/21 01:50:40;;;;;;;33.45;18.40;;;;;;;;;;6237251;22;20519;-72
2022/11/21 01:53:06;;;;;;;32.53;19.20;;;;;;;;;;6238951;22;20024;-72
2022/11/21 01:55:32;;;;;;;30.00;18.02;;;;;;;;;;6239277;22;20539;-72
2022/11/21 01:57:58;;;;;;;31.90;18.55;;;;;;;;;;6235982;22;20062;-71
2022/11/21 02:00:26;;;;;;;31.83;18.75;;;;;;;;;;6236959;22;20024;-73
2022/11/21 02:02:55;;;;;;;35.15;19.15;;;;;;;;;;6239317;22;20023;-73
2022/11/21 02:05:26;;;;;;;34.47;19.20;;;;;;;;;;6238850;22;20039;-72
2022/11/21 02:07:58;;;;;;;32.80;18.73;;;;;;;;;;6233090;22;20074;-72
2022/11/21 02:10:24;;;;;;;29.23;18.38;;;;;;;;;;6237668;22;20027;-72
2022/11/21 02:12:54;;;;;;;34.28;18.42;;;;;;;;;;6239143;22;20500;-72
2022/11/21 02:15:22;;;;;;;31.48;19.58;;;;;;;;;;6236500;22;20027;-72
2022/11/21 02:17:48;;;;;;;29.65;17.70;;;;;;;;;;6238294;22;20020;-72
2022/11/21 02:20:18;;;;;;;28.58;17.20;;;;;;;;;;6231703;22;20343;-72
2022/11/21 02:22:44;;;;;;;33.05;19.63;;;;;;;;;;6237029;22;20051;-72
2022/11/21 02:25:16;;;;;;;35.75;19.65;;;;;;;;;;6232797;22;20035;-72
2022/11/21 02:27:42;;;;;;;34.15;19.48;;;;;;;;;;6235711;22;20035;-73
2022/11/21 02:30:09;;;;;;;33.20;19.35;;;;;;;;;;6235959;22;20024;-73
2022/11/21 02:32:38;;;;;;;31.60;18.20;;;;;;;;;;6237416;22;20087;-72
2022/11/21 02:35:04;;;;;;;31.23;18.30;;;;;;;;;;6237575;22;20020;-71
2022/11/21 02:37:31;;;;;;;31.35;17.52;;;;;;;;;;6237621;22;20074;-71
2022/11/21 02:39:59;;;;;;;31.50;18.42;;;;;;;;;;6237878;22;20073;-71
2022/11/21 02:42:28;;;;;;;30.15;17.80;;;;;;;;;;6237316;22;20020;-72
2022/11/21 02:45:03;;;;;;;35.33;18.80;;;;;;;;;;6239576;22;20032;-72
2022/11/21 02:47:30;;;;;;;31.52;18.63;;;;;;;;;;6240602;22;20470;-72
2022/11/21 02:49:59;;;;;;;32.53;18.67;;;;;;;;;;6237089;22;20460;-71
2022/11/21 02:52:25;;;;;;;31.05;17.85;;;;;;;;;;6235913;22;20020;-71
2022/11/21 02:54:54;;;;;;;34.03;18.63;;;;;;;;;;6238346;22;20479;-73
2022/11/21 02:57:20;;;;;;;33.97;19.20;;;;;;;;;;6238690;22;20020;-73
2022/11/21 02:59:46;;;;;;;32.67;18.80;;;;;;;;;;6238589;22;20043;-72
2022/11/21 03:02:12;;;;;;;32.40;19.45;;;;;;;;;;6238128;22;20035;-72
2022/11/21 03:04:38;;;;;;;35.22;19.25;;;;;;;;;;6237434;22;20024;-73
2022/11/21 03:07:04;;;;;;;36.97;19.95;;;;;;;;;;6238283;22;20039;-73
2022/11/21 03:09:30;;;;;;;33.10;19.40;;;;;;;;;;6238054;23;20434;-73
2022/11/21 03:11:56;;;;;;;34.90;19.48;;;;;;;;;;6237869;22;20063;-73
2022/11/21 03:14:25;;;;;;;37.55;19.60;;;;;;;;;;6238567;22;20028;-73
2022/11/21 03:16:51;;;;;;;33.63;19.40;;;;;;;;;;6238763;22;20107;-73
2022/11/21 03:19:17;;;;;;;34.20;19.77;;;;;;;;;;6236964;22;20023;-73
2022/11/21 03:21:43;;;;;;;33.72;19.55;;;;;;;;;;6239024;22;20119;-72
2022/11/21 03:24:09;;;;;;;34.97;20.25;;;;;;;;;;6235196;22;20351;-73
2022/11/21 03:26:35;;;;;;;37.10;20.20;;;;;;;;;;6236006;22;20026;-72
2022/11/21 03:29:01;;;;;;;36.42;20.52;;;;;;;;;;6236118;22;20833;-73
2022/11/21 03:31:28;;;;;;;37.85;20.75;;;;;;;;;;6236823;22;20024;-73
2022/11/21 03:33:54;;;;;;;36.58;20.30;;;;;;;;;;6237749;22;20020;-73
2022/11/21 03:36:20;;;;;;;36.03;19.95;;;;;;;;;;6238157;22;20102;-72
2022/11/21 03:38:46;;;;;;;35.55;19.35;;;;;;;;;;6237344;22;20097;-72
2022/11/21 03:41:30;;;;;;;37.30;20.98;;;;;;;;;;6236054;22;20024;-72
2022/11/21 03:44:14;;;;;;;31.73;19.00;;;;;;;;;;6235836;22;20024;-72
2022/11/21 03:46:42;;;;;;;33.03;19.20;;;;;;;;;;6238545;22;20114;-72
2022/11/21 03:49:09;;;;;;;32.85;19.23;;;;;;;;;;6187284;22;1118460;-71
2022/11/21 03:51:36;;;;;;;35.60;19.77;;;;;;;;;;6239753;22;20020;-72
2022/11/21 03:54:03;;;;;;;35.90;20.98;;;;;;;;;;6237131;22;20478;-71
2022/11/21 03:56:29;;;;;;;36.10;19.73;;;;;;;;;;6238347;22;20111;-72
2022/11/21 03:58:55;;;;;;;38.05;21.85;;;;;;;;;;6233700;22;20386;-72
2022/11/21 04:01:22;;;;;;;36.25;20.38;;;;;;;;;;6236404;22;20490;-71
2022/11/21 04:03:48;;;;;;;33.60;19.75;;;;;;;;;;6233902;22;20531;-71
2022/11/21 04:06:15;;;;;;;34.70;20.33;;;;;;;;;;6239169;22;20474;-71
2022/11/21 04:08:42;;;;;;;34.35;20.98;;;;;;;;;;6237592;22;20024;-71
2022/11/21 04:11:08;;;;;;;41.67;20.27;;;;;;;;;;6236433;22;20083;-72
2022/11/21 04:13:34;;;;;;;36.75;21.25;;;;;;;;;;6237272;22;20444;-71
2022/11/21 04:16:00;;;;;;;35.28;20.58;;;;;;;;;;6239756;22;20028;-71
2022/11/21 04:18:26;;;;;;;34.63;19.15;;;;;;;;;;6238829;22;20031;-73
2022/11/21 04:20:59;;;;;;;38.25;20.70;;;;;;;;;;6239250;22;20103;-72
2022/11/21 04:23:25;;;;;;;39.15;21.90;;;;;;;;;;6240233;22;20097;-72
2022/11/21 04:25:52;;;;;;;36.13;19.95;;;;;;;;;;6240312;22;20027;-73
2022/11/21 04:28:18;;;;;;;33.25;19.13;;;;;;;;;;6239589;22;20635;-73
2022/11/21 04:30:44;;;;;;;34.70;21.00;;;;;;;;;;6240750;22;20086;-72
2022/11/21 04:33:11;;;;;;;37.55;20.25;;;;;;;;;;6238546;22;20099;-73
2022/11/21 04:35:37;;;;;;;33.45;19.98;;;;;;;;;;6239565;22;20012;-71
2022/11/21 04:38:03;;;;;;;41.38;20.35;;;;;;;;;;6239648;22;20012;-72
2022/11/21 04:40:29;;;;;;;32.88;19.17;;;;;;;;;;6240272;22;20020;-72
2022/11/21 04:42:56;;;;;;;30.48;18.45;;;;;;;;;;6238553;22;20080;-72
2022/11/21 04:45:23;;;;;;;38.15;21.20;;;;;;;;;;6239114;22;20024;-73
2022/11/21 04:47:49;;;;;;;40.00;19.90;;;;;;;;;;6238976;22;20074;-71
2022/11/21 04:50:16;;;;;;;39.47;20.95;;;;;;;;;;6237810;22;20028;-72
2022/11/21 04:52:52;;;;;;;39.40;21.02;;;;;;;;;;6239940;22;20087;-72
2022/11/21 04:55:19;;;;;;;35.03;20.40;;;;;;;;;;6240038;22;20044;-72
2022/11/21 04:57:45;;;;;;;37.55;21.75;;;;;;;;;;6236834;22;20515;-72
2022/11/21 05:00:12;;;;;;;37.80;20.13;;;;;;;;;;6236117;22;20027;-73
2022/11/21 05:02:38;;;;;;;38.13;20.88;;;;;;;;;;6238699;22;20023;-72
2022/11/21 05:05:04;;;;;;;39.72;20.75;;;;;;;;;;6236050;22;20478;-73
2022/11/21 05:07:30;;;;;;;37.35;21.00;;;;;;;;;;6236232;22;20020;-73
2022/11/21 05:09:56;;;;;;;35.53;20.80;;;;;;;;;;6238754;22;20028;-73
2022/11/21 05:15:10;;;;;;;38.13;21.13;;;;;;;;;;6236123;22;20356;-73
2022/11/21 05:17:36;;;;;;;46.05;20.42;;;;;;;;;;6235428;22;20460;-71
2022/11/21 05:20:02;;;;;;;37.50;21.02;;;;;;;;;;6237882;22;20024;-73
2022/11/21 05:22:28;;;;;;;35.85;19.67;;;;;;;;;;6237299;22;20016;-73
2022/11/21 05:24:55;;;;;;;37.25;20.30;;;;;;;;;;6239913;22;20106;-73
2022/11/21 05:27:21;;;;;;;38.53;20.50;;;;;;;;;;6238537;22;20020;-73
2022/11/21 05:29:47;;;;;;;38.85;21.20;;;;;;;;;;6237996;22;20043;-72
2022/11/21 05:32:13;;;;;;;36.17;20.15;;;;;;;;;;6237084;22;20032;-73
2022/11/21 05:34:39;;;;;;;37.35;20.90;;;;;;;;;;6236021;22;20058;-73
2022/11/21 05:37:05;;;;;;;36.58;19.48;;;;;;;;;;6236525;22;20028;-73
2022/11/21 05:39:31;;;;;;;34.42;19.48;;;;;;;;;;6238795;22;20785;-72
2022/11/21 05:41:57;;;;;;;37.78;20.55;;;;;;;;;;6238716;22;20340;-73
2022/11/21 05:44:23;;;;;;;37.45;19.90;;;;;;;;;;6237521;22;20756;-73
2022/11/21 05:46:49;;;;;;;41.35;21.02;;;;;;;;;;6237143;22;20432;-72
2022/11/21 05:49:15;;;;;;;41.83;21.75;;;;;;;;;;6235605;22;20024;-72
2022/11/21 05:51:41;;;;;;;37.70;20.77;;;;;;;;;;6236526;22;20534;-72
2022/11/21 05:54:07;;;;;;;42.58;21.65;;;;;;;;;;6237883;22;20024;-73
2022/11/21 05:56:33;;;;;;;40.20;21.40;;;;;;;;;;6237068;22;20755;-72
2022/11/21 05:58:59;;;;;;;37.03;21.45;;;;;;;;;;6237290;22;20024;-72
2022/11/21 06:04:10;;;;;;;40.03;21.65;;;;;;;;;;6235368;22;20472;-73
2022/11/21 06:06:36;;;;;;;38.03;20.88;;;;;;;;;;6237667;22;20054;-72
2022/11/21 06:09:03;;;;;;;42.40;22.52;;;;;;;;;;6239081;22;20024;-73
2022/11/21 06:11:30;;;;;;;40.15;21.05;;;;;;;;;;6237795;22;20016;-71
2022/11/21 06:13:56;;;;;;;39.25;21.60;;;;;;;;;;6239059;22;20031;-71
2022/11/21 06:16:25;;;;;;;36.58;20.58;;;;;;;;;;6236258;22;20054;-72
2022/11/21 06:18:51;;;;;;;39.47;21.45;;;;;;;;;;6239518;22;20024;-72
2022/11/21 06:21:19;;;;;;;41.15;20.58;;;;;;;;;;6239791;22;20070;-72
2022/11/21 06:23:46;;;;;;;42.47;22.23;;;;;;;;;;6241324;22;20502;-73
2022/11/21 06:26:13;;;;;;;42.47;22.35;;;;;;;;;;6239449;22;20027;-73
2022/11/21 06:28:40;;;;;;;43.03;21.63;;;;;;;;;;6240374;22;20444;-70
2022/11/21 06:31:10;;;;;;;47.35;22.05;;;;;;;;;;6240801;22;20028;-73
2022/11/21 06:33:36;;;;;;;44.85;22.10;;;;;;;;;;6239461;22;20460;-73
2022/11/21 06:36:03;;;;;;;46.50;22.63;;;;;;;;;;6239691;22;20016;-72
2022/11/21 06:38:29;;;;;;;47.47;21.90;;;;;;;;;;6241547;22;20020;-71
2022/11/21 06:40:55;;;;;;;42.70;22.63;;;;;;;;;;6238324;22;20024;-71
2022/11/21 06:43:21;;;;;;;41.63;23.10;;;;;;;;;;6234812;22;20081;-73
2022/11/21 06:45:47;;;;;;;48.05;23.55;;;;;;;;;;6237584;22;20024;-73
2022/11/21 06:48:14;;;;;;;47.05;23.08;;;;;;;;;;6234807;22;20079;-70
2022/11/21 06:50:40;;;;;;;53.17;25.27;;;;;;;;;;6236969;22;20047;-74
2022/11/21 06:53:06;;;;;;;47.70;23.90;;;;;;;;;;6239231;22;20020;-74
2022/11/21 06:55:32;;;;;;;56.45;28.05;;;;;;;;;;6240813;22;20032;-73
2022/11/21 06:57:58;;;;;;;63.03;35.85;;;;;;;;;;6240071;22;20016;-73
2022/11/21 07:00:28;;;;;;;68.65;36.20;;;;;;;;;;6236338;22;20043;-75
2022/11/21 07:02:54;;;;;;;63.80;30.05;;;;;;;;;;6237664;22;20504;-74
2022/11/21 07:05:21;;;;;;;60.58;29.08;;;;;;;;;;6237334;22;20024;-75
2022/11/21 07:07:50;;;;;;;61.40;25.98;;;;;;;;;;6238498;22;20091;-73
2022/11/21 07:10:16;;;;;;;58.78;26.90;;;;;;;;;;6239103;22;20109;-75
2022/11/21 07:15:26;;;;;;;58.85;27.50;;;;;;;;;;6238603;22;20020;-74
2022/11/21 07:17:53;;;;;;;55.05;26.35;;;;;;;;;;6239578;22;20024;-74
2022/11/21 07:20:19;;;;;;;62.03;26.33;;;;;;;;;;6237235;22;20485;-74
2022/11/21 07:22:45;;;;;;;57.58;25.98;;;;;;;;;;6239111;22;20032;-74
2022/11/21 07:25:11;;;;;;;60.45;26.73;;;;;;;;;;6238559;22;20024;-75
2022/11/21 07:27:37;;;;;;;55.17;26.88;;;;;;;;;;6240203;22;20031;-76
2022/11/21 07:30:03;;;;;;;52.90;25.92;;;;;;;;;;6238456;22;20024;-75
2022/11/21 07:32:29;;;;;;;56.55;26.67;;;;;;;;;;6237213;22;20364;-72
2022/11/21 07:34:55;;;;;;;61.60;26.90;;;;;;;;;;6245684;22;20034;-76
2022/11/21 07:37:21;;;;;;;57.95;27.25;;;;;;;;;;6241772;22;20498;-71
2022/11/21 07:39:47;;;;;;;56.25;26.45;;;;;;;;;;6241315;22;20024;-72
2022/11/21 07:42:13;;;;;;;59.30;26.38;;;;;;;;;;6240413;22;20024;-73
2022/11/21 07:44:39;;;;;;;60.33;27.33;;;;;;;;;;6240689;22;20095;-73
2022/11/21 07:47:05;;;;;;;67.72;29.38;;;;;;;;;;6239933;22;20028;-72
2022/11/21 07:49:32;;;;;;;64.55;27.58;;;;;;;;;;6238935;22;20486;-75
2022/11/21 07:51:58;;;;;;;64.10;26.35;;;;;;;;;;6240138;22;20066;-73
2022/11/21 07:54:24;;;;;;;86.00;27.10;;;;;;;;;;6239475;22;20024;-73
2022/11/21 07:56:50;;;;;;;75.30;26.20;;;;;;;;;;6241810;22;20020;-73
2022/11/21 07:59:18;;;;;;;63.95;26.35;;;;;;;;;;6238084;22;20477;-72
2022/11/21 08:01:44;;;;;;;65.22;26.63;;;;;;;;;;6239097;22;20486;-72
2022/11/21 08:04:10;;;;;;;70.22;26.40;;;;;;;;;;6240002;22;20031;-72
2022/11/21 08:06:36;;;;;;;70.90;28.45;;;;;;;;;;6240892;22;20022;-73
2022/11/21 08:09:02;;;;;;;94.00;27.20;;;;;;;;;;6238910;22;20056;-73
2022/11/21 08:11:29;;;;;;;86.10;27.13;;;;;;;;;;6241060;22;20020;-74
2022/11/21 08:13:56;;;;;;;94.25;27.92;;;;;;;;;;6240856;22;20061;-72
2022/11/21 08:16:26;;;;;;;98.20;27.88;;;;;;;;;;6238847;22;20028;-71
2022/11/21 08:18:52;;;;;;;72.53;28.00;;;;;;;;;;6239958;22;20047;-73
2022/11/21 08:21:18;;;;;;;151.40;28.40;;;;;;;;;;6239676;22;20105;-72
2022/11/21 08:23:44;;;;;;;201.23;30.45;;;;;;;;;;6240232;22;20029;-73
2022/11/21 08:26:10;;;;;;;78.50;24.88;;;;;;;;;;6239949;22;20030;-73
2022/11/21 08:28:36;;;;;;;172.68;28.90;;;;;;;;;;6236977;22;20020;-72
2022/11/21 08:31:03;;;;;;;111.97;25.92;;;;;;;;;;6238181;22;20206;-71
2022/11/21 08:33:29;;;;;;;106.13;25.05;;;;;;;;;;6239137;22;20016;-71
2022/11/21 08:35:56;;;;;;;106.10;26.38;;;;;;;;;;6240727;22;20334;-73
2022/11/21 08:38:22;;;;;;;100.65;26.20;;;;;;;;;;6240384;22;20028;-68
2022/11/21 08:42:01;;;;;;;71.82;24.58;;;;;;;;;;6239691;22;20024;-69
2022/11/21 08:43:34;;;;;;;67.38;24.35;;;;;;;;;;6232501;22;20020;-68
2022/11/21 08:46:00;;;;;;;84.47;25.88;;;;;;;;;;6237984;22;20035;-69
2022/11/21 08:48:26;;;;;;;167.20;27.50;;;;;;;;;;6236316;22;20690;-69
2022/11/21 08:50:52;;;;;;;163.20;30.13;;;;;;;;;;6235316;22;20024;-69
2022/11/21 08:53:18;;;;;;;123.50;28.75;;;;;;;;;;6236388;22;20048;-70
2022/11/21 08:55:44;;;;;;;121.90;27.85;;;;;;;;;;6237370;22;20055;-68
2022/11/21 08:58:10;;;;;;;136.60;26.95;;;;;;;;;;6236309;22;20491;-69
2022/11/21 09:00:36;;;;;;;161.13;28.63;;;;;;;;;;6235677;22;20024;-68
2022/11/21 09:03:05;;;;;;;148.15;27.73;;;;;;;;;;6235755;22;20032;-70
2022/11/21 09:05:32;;;;;;;171.95;31.90;;;;;;;;;;6238610;22;20016;-70
2022/11/21 09:07:58;;;;;;;149.40;28.27;;;;;;;;;;6240098;22;20032;-73
2022/11/21 09:10:27;;;;;;;99.60;24.90;;;;;;;;;;6235233;22;20028;-72
2022/11/21 09:12:54;;;;;;;106.63;27.98;;;;;;;;;;6236726;22;20032;-72
2022/11/21 09:18:06;;;;;;;72.93;22.52;;;;;;;;;;6237003;22;20028;-72
2022/11/21 09:20:37;;;;;;;60.90;21.67;;;;;;;;;;6237988;22;20471;-71
2022/11/21 09:23:13;;;;;;;58.85;26.20;;;;;;;;;;6238203;22;20136;-72
2022/11/21 09:25:40;;;;;;;60.70;21.90;;;;;;;;;;6237215;22;20027;-72
2022/11/21 09:28:07;;;;;;;65.97;24.95;;;;;;;;;;6235998;22;20121;-71
2022/11/21 09:30:33;;;;;;;68.88;27.08;;;;;;;;;;6238855;22;20447;-71
2022/11/21 09:33:02;;;;;;;55.03;22.48;;;;;;;;;;6238868;22;20016;-71
2022/11/21 09:35:29;;;;;;;63.95;24.88;;;;;;;;;;6236868;22;20020;-72
2022/11/21 09:37:55;;;;;;;57.00;24.63;;;;;;;;;;6239565;22;20024;-72
2022/11/21 09:40:21;;;;;;;52.60;22.17;;;;;;;;;;6238062;22;20487;-71
2022/11/21 09:42:47;;;;;;;39.35;18.88;;;;;;;;;;6232651;22;20647;-72
2022/11/21 09:45:25;;;;;;;43.25;18.98;;;;;;;;;;6239044;22;20016;-71
2022/11/21 09:47:52;;;;;;;45.47;21.42;;;;;;;;;;6237896;22;20066;-71
2022/11/21 09:50:21;;;;;;;47.63;21.65;;;;;;;;;;6233586;22;20024;-72
2022/11/21 09:53:05;;;;;;;54.53;23.02;;;;;;;;;;6235074;22;20024;-70
2022/11/21 09:55:31;;;;;;;48.78;20.67;;;;;;;;;;6236369;22;20077;-70
2022/11/21 09:57:59;;;;;;;45.75;20.45;;;;;;;;;;6239119;22;20447;-72
2022/11/21 10:00:26;;;;;;;45.00;21.42;;;;;;;;;;6237624;22;20051;-71
2022/11/21 10:02:55;;;;;;;48.72;20.67;;;;;;;;;;6238312;22;20027;-71
2022/11/21 10:05:25;;;;;;;44.42;18.77;;;;;;;;;;6235910;22;22002;-72
2022/11/21 10:07:57;;;;;;;46.25;19.45;;;;;;;;;;6224657;22;20023;-72
2022/11/21 10:10:42;;;;;;;46.22;20.40;;;;;;;;;;6251916;22;20027;-72
2022/11/21 10:13:20;;;;;;;42.67;19.80;;;;;;;;;;6236873;22;20024;-72
2022/11/21 10:15:52;;;;;;;41.80;19.27;;;;;;;;;;6237225;22;20020;-71
2022/11/21 10:18:24;;;;;;;44.47;19.27;;;;;;;;;;6233608;22;20356;-71
2022/11/21 10:21:10;;;;;;;40.05;18.52;;;;;;;;;;6231953;22;20035;-76
2022/11/21 10:23:43;;;;;;;40.45;17.80;;;;;;;;;;6236125;22;20042;-72
2022/11/21 10:26:28;;;;;;;41.78;18.92;;;;;;;;;;6236561;22;20302;-71
2022/11/21 10:29:10;;;;;;;41.30;19.15;;;;;;;;;;6232235;22;20089;-71
2022/11/21 10:31:38;;;;;;;34.80;18.33;;;;;;;;;;6236352;22;20147;-71
2022/11/21 10:34:10;;;;;;;35.08;16.70;;;;;;;;;;6232925;22;20511;-71
2022/11/21 10:36:37;;;;;;;36.40;17.88;;;;;;;;;;6233661;22;20020;-70
2022/11/21 10:39:12;;;;;;;32.00;16.13;;;;;;;;;;6233352;22;20028;-71
2022/11/21 10:41:41;;;;;;;26.45;15.73;;;;;;;;;;6234549;22;20074;-70
2022/11/21 10:47:26;;;;;;;23.77;13.32;;;;;;;;;;6232610;22;20020;-72
2022/11/21 10:50:15;;;;;;;25.92;13.52;;;;;;;;;;6230560;22;20032;-71
2022/11/21 10:52:48;;;;;;;25.45;13.98;;;;;;;;;;6231217;22;20456;-71
2022/11/21 10:55:14;;;;;;;25.70;13.32;;;;;;;;;;6233075;22;20024;-72
2022/11/21 10:57:40;;;;;;;30.00;14.88;;;;;;;;;;6236641;22;20399;-73
2022/11/21 11:00:12;;;;;;;27.38;15.02;;;;;;;;;;6237140;22;20452;-73
2022/11/21 11:03:04;;;;;;;25.75;14.27;;;;;;;;;;6237571;22;20190;-72
2022/11/21 11:05:32;;;;;;;23.17;13.57;;;;;;;;;;6236932;22;20020;-72
2022/11/21 11:08:05;;;;;;;25.20;13.75;;;;;;;;;;6239777;22;20095;-72
2022/11/21 11:10:31;;;;;;;;;;;;;;;;;;6238222;22;20356;-71
2022/11/21 11:15:58;;;;;;;19.50;11.38;;;;;;;;;;6239671;22;20019;-72
2022/11/21 11:18:25;;;;;;;27.02;14.20;;;;;;;;;;6237575;22;20111;-72
2022/11/21 11:20:54;;;;;;;21.95;13.23;;;;;;;;;;6238297;22;20032;-72
2022/11/21 11:23:26;;;;;;;19.13;10.85;;;;;;;;;;6235958;22;20336;-72
2022/11/21 11:26:26;;;;;;;17.00;10.77;;;;;;;;;;6234157;22;20099;-72
2022/11/21 11:28:54;;;;;;;18.65;11.60;;;;;;;;;;6240117;22;20570;-74
2022/11/21 11:31:21;;;;;;;16.95;10.70;;;;;;;;;;6238376;22;20345;-74
2022/11/21 11:33:47;;;;;;;19.25;11.43;;;;;;;;;;6238224;22;20077;-72
2022/11/21 11:36:18;;;;;;;19.73;12.20;;;;;;;;;;6236770;22;20411;-72
2022/11/21 11:38:50;;;;;;;16.90;10.60;;;;;;;;;;6241641;22;20031;-72
2022/11/21 11:47:29;;;;;;;20.83;12.23;;;;;;;;;;6241894;22;20051;-73
2022/11/21 11:47:31;;;;;;;22.70;13.98;;;;;;;;;;6237479;22;20024;-72
2022/11/21 11:50:12;;;;;;;21.50;12.65;;;;;;;;;;6242297;22;20533;-73
2022/11/21 11:52:38;;;;;;;20.90;12.13;;;;;;;;;;6237783;22;20024;-75
2022/11/21 11:55:13;;;;;;;26.55;14.05;;;;;;;;;;6237730;22;20040;-74
2022/11/21 11:57:40;;;;;;;25.75;13.52;;;;;;;;;;6239671;22;20016;-75
2022/11/21 12:00:26;;;;;;;26.02;14.23;;;;;;;;;;6236227;22;20028;-75
2022/11/21 12:03:06;;;;;;;24.95;13.02;;;;;;;;;;6231469;22;20301;-76
2022/11/21 12:05:32;;;;;;;23.98;13.05;;;;;;;;;;6237421;22;20020;-75
2022/11/21 12:08:04;;;;;;;22.95;13.65;;;;;;;;;;6237544;22;20028;-75
2022/11/21 12:13:33;;;;;;;21.63;13.48;;;;;;;;;;6237519;22;20248;-76
2022/11/21 12:16:03;;;;;;;22.20;12.70;;;;;;;;;;6238551;22;20016;-76
2022/11/21 12:18:33;;;;;;;20.40;13.27;;;;;;;;;;6236086;22;20054;-75
2022/11/21 12:21:02;;;;;;;21.98;13.38;;;;;;;;;;6237496;22;20296;-76
2022/11/21 12:23:31;;;;;;;20.65;12.32;;;;;;;;;;6234284;22;20031;-76
2022/11/21 12:26:22;;;;;;;20.25;12.45;;;;;;;;;;6238649;22;20036;-76
2022/11/21 12:29:07;;;;;;;22.63;12.38;;;;;;;;;;6237014;22;20436;-76
2022/11/21 12:31:33;;;;;;;23.67;14.95;;;;;;;;;;6236209;22;20020;-75
2022/11/21 12:34:02;;;;;;;23.95;15.00;;;;;;;;;;6234443;22;20055;-74
2022/11/21 12:36:39;;;;;;;24.88;15.27;;;;;;;;;;6233926;22;20028;-75
2022/11/21 12:39:20;;;;;;;23.88;14.57;;;;;;;;;;6237696;22;20032;-75
2022/11/21 12:44:44;;;;;;;27.63;15.68;;;;;;;;;;6235789;22;20016;-76
2022/11/21 12:54:28;;;;;;;28.25;16.30;;;;;;;;;;6238239;22;20509;-75
2022/11/21 12:56:13;;;;;;;27.75;16.52;;;;;;;;;;6237544;22;20069;-76
2022/11/21 12:58:42;;;;;;;30.13;17.30;;;;;;;;;;6239277;22;20046;-76
2022/11/21 13:01:28;;;;;;;27.63;16.67;;;;;;;;;;6238233;22;20464;-75
2022/11/21 13:04:04;;;;;;;29.55;16.25;;;;;;;;;;6238107;22;20479;-75
2022/11/21 13:06:32;;;;;;;29.95;16.73;;;;;;;;;;6238949;22;20098;-75
2022/11/21 13:09:01;;;;;;;27.52;17.35;;;;;;;;;;6236920;22;20030;-75
2022/11/21 13:14:32;;;;;;;31.10;17.13;;;;;;;;;;6239470;22;20021;-75
2022/11/21 13:17:06;;;;;;;29.52;16.88;;;;;;;;;;6240201;22;20032;-75
2022/11/21 13:19:49;;;;;;;26.67;16.08;;;;;;;;;;6238583;22;20027;-75
2022/11/21 13:22:34;;;;;;;27.65;16.80;;;;;;;;;;6238993;22;20024;-76
2022/11/21 13:25:01;;;;;;;27.77;16.95;;;;;;;;;;6239064;22;20032;-76
2022/11/21 13:27:27;;;;;;;30.15;17.85;;;;;;;;;;6237162;22;20085;-75
2022/11/21 13:30:09;;;;;;;29.77;18.08;;;;;;;;;;6236146;22;20464;-76
2022/11/21 13:32:43;;;;;;;24.83;14.30;;;;;;;;;;6235854;22;20052;-77
2022/11/21 13:35:18;;;;;;;30.10;16.95;;;;;;;;;;6235368;22;20024;-75
2022/11/21 13:38:03;;;;;;;29.70;17.25;;;;;;;;;;6237292;22;20094;-76
2022/11/21 13:40:29;;;;;;;30.17;19.30;;;;;;;;;;6238205;22;20027;-76
2022/11/21 13:43:08;;;;;;;32.80;19.35;;;;;;;;;;6236608;22;20107;-76
2022/11/21 13:45:39;;;;;;;29.20;16.52;;;;;;;;;;6237287;22;20044;-76
2022/11/21 13:48:18;;;;;;;25.70;14.75;;;;;;;;;;6235294;22;20031;-74
2022/11/21 13:50:50;;;;;;;28.55;16.92;;;;;;;;;;6235447;22;20032;-76
2022/11/21 13:53:34;;;;;;;28.60;17.52;;;;;;;;;;6236909;22;20024;-74
2022/11/21 13:56:19;;;;;;;31.45;17.75;;;;;;;;;;6239325;22;20024;-74
2022/11/21 13:59:06;;;;;;;31.73;17.05;;;;;;;;;;6232558;22;20475;-70
2022/11/21 14:01:47;;;;;;;31.13;18.05;;;;;;;;;;6220702;22;20026;-73
2022/11/21 14:04:28;;;;;;;33.88;18.77;;;;;;;;;;6237368;22;20032;-73
2022/11/21 14:06:54;;;;;;;34.70;18.73;;;;;;;;;;6235655;22;20020;-71
2022/11/21 14:09:25;;;;;;;34.47;18.58;;;;;;;;;;6238101;22;20028;-73
2022/11/21 14:12:07;;;;;;;34.17;18.63;;;;;;;;;;6237597;22;20051;-72
2022/11/21 14:14:35;;;;;;;40.30;19.05;;;;;;;;;;6237728;22;20464;-73
2022/11/21 14:17:20;;;;;;;38.85;18.60;;;;;;;;;;6248184;22;20444;-72
2022/11/21 14:19:47;;;;;;;40.25;18.05;;;;;;;;;;6232386;22;20012;-73
2022/11/21 14:22:24;;;;;;;36.97;17.67;;;;;;;;;;6233628;22;20020;-76
2022/11/21 14:24:51;;;;;;;41.05;17.75;;;;;;;;;;6235457;22;20100;-77
2022/11/21 14:27:22;;;;;;;58.70;20.08;;;;;;;;;;6218283;22;20540;-77
2022/11/21 14:29:48;;;;;;;43.03;19.73;;;;;;;;;;6234737;22;20028;-77
2022/11/21 14:32:14;;;;;;;55.50;21.00;;;;;;;;;;6233168;22;20027;-78
2022/11/21 14:34:42;;;;;;;48.45;20.85;;;;;;;;;;6234448;22;20034;-78
2022/11/21 14:37:12;;;;;;;43.80;21.73;;;;;;;;;;6232215;22;20029;-77
2022/11/21 14:39:40;;;;;;;48.80;22.65;;;;;;;;;;6234207;22;20027;-77
2022/11/21 14:42:12;;;;;;;47.40;20.70;;;;;;;;;;6236298;22;20020;-76
2022/11/21 14:44:38;;;;;;;44.90;20.35;;;;;;;;;;6236832;22;20022;-77
2022/11/21 14:47:14;;;;;;;49.25;21.73;;;;;;;;;;6234126;22;20043;-75
2022/11/21 14:49:48;;;;;;;44.92;19.95;;;;;;;;;;6230700;22;20288;-76
2022/11/21 14:52:28;;;;;;;53.15;18.90;;;;;;;;;;6235099;22;20028;-76
2022/11/21 14:54:57;;;;;;;64.90;20.05;;;;;;;;;;6236201;22;20031;-76
2022/11/21 14:57:26;;;;;;;55.58;19.45;;;;;;;;;;6233221;22;20020;-76
2022/11/21 14:59:56;;;;;;;58.55;20.52;;;;;;;;;;6236593;22;20410;-75
2022/11/21 15:02:26;;;;;;;75.30;23.60;;;;;;;;;;6230026;22;20024;-77